sensor_id;sensor_type;location;lat;lon;timestamp;P1;durP1;ratioP1;P2;durP2;ratioP2
42200;SDS011;27869;51.442;7.540;2022-07-29T00:00:11;8.00;;;1.52;;
42200;SDS011;27869;51.442;7.540;2022-07-29T00:02:38;7.75;;;1.48;;
42200;SDS011;27869;51.442;7.540;2022-07-29T00:05:05;6.38;;;1.50;;
42200;SDS011;27869;51.442;7.540;2022-07-29T00:10:03;8.00;;;1.42;;
42200;SDS011;27869;51.442;7.540;2022-07-29T00:12:30;7.57;;;1.60;;
42200;SDS011;27869;51.442;7.540;2022-07-29T00:14:57;13.68;;;1.80;;
42200;SDS011;27869;51.442;7.540;2022-07-29T00:17:24;7.70;;;1.73;;
42200;SDS011;27869;51.442;7.540;2022-07-29T00:19:51;10.43;;;1.80;;
42200;SDS011;27869;51.442;7.540;2022-07-29T00:22:18;6.47;;;1.38;;
42200;SDS011;27869;51.442;7.540;2022-07-29T00:24:48;8.63;;;1.52;;
42200;SDS011;27869;51.442;7.540;2022-07-29T00:27:15;7.97;;;1.70;;
42200;SDS011;27869;51.442;7.540;2022-07-29T00:29:42;10.90;;;1.73;;
42200;SDS011;27869;51.442;7.540;2022-07-29T00:32:08;13.40;;;1.48;;
42200;SDS011;27869;51.442;7.540;2022-07-29T00:34:35;9.52;;;1.40;;
42200;SDS011;27869;51.442;7.540;2022-07-29T00:37:20;7.88;;;1.40;;
42200;SDS011;27869;51.442;7.540;2022-07-29T00:39:48;6.93;;;1.60;;
42200;SDS011;27869;51.442;7.540;2022-07-29T00:42:15;11.30;;;1.58;;
42200;SDS011;27869;51.442;7.540;2022-07-29T00:44:42;8.02;;;1.52;;
42200;SDS011;27869;51.442;7.540;2022-07-29T00:47:10;8.90;;;1.70;;
42200;SDS011;27869;51.442;7.540;2022-07-29T00:49:38;7.50;;;1.70;;
42200;SDS011;27869;51.442;7.540;2022-07-29T00:52:06;6.80;;;1.50;;
42200;SDS011;27869;51.442;7.540;2022-07-29T00:54:34;10.63;;;2.55;;
42200;SDS011;27869;51.442;7.540;2022-07-29T00:57:03;8.50;;;1.70;;
42200;SDS011;27869;51.442;7.540;2022-07-29T00:59:32;8.38;;;1.45;;
42200;SDS011;27869;51.442;7.540;2022-07-29T01:01:58;12.75;;;1.70;;
42200;SDS011;27869;51.442;7.540;2022-07-29T01:04:26;6.78;;;1.50;;
42200;SDS011;27869;51.442;7.540;2022-07-29T01:06:54;7.35;;;1.52;;
42200;SDS011;27869;51.442;7.540;2022-07-29T01:09:21;6.72;;;1.67;;
42200;SDS011;27869;51.442;7.540;2022-07-29T01:11:49;9.25;;;1.70;;
42200;SDS011;27869;51.442;7.540;2022-07-29T01:14:18;7.32;;;1.60;;
42200;SDS011;27869;51.442;7.540;2022-07-29T01:16:48;7.35;;;1.42;;
42200;SDS011;27869;51.442;7.540;2022-07-29T01:19:30;6.40;;;1.52;;
42200;SDS011;27869;51.442;7.540;2022-07-29T01:22:25;8.05;;;1.15;;
42200;SDS011;27869;51.442;7.540;2022-07-29T01:25:00;9.35;;;1.77;;
42200;SDS011;27869;51.442;7.540;2022-07-29T01:27:40;5.22;;;1.23;;
42200;SDS011;27869;51.442;7.540;2022-07-29T01:30:14;11.73;;;1.80;;
42200;SDS011;27869;51.442;7.540;2022-07-29T01:32:42;7.00;;;1.45;;
42200;SDS011;27869;51.442;7.540;2022-07-29T01:35:15;7.47;;;1.33;;
42200;SDS011;27869;51.442;7.540;2022-07-29T01:37:48;6.88;;;1.50;;
42200;SDS011;27869;51.442;7.540;2022-07-29T01:40:22;8.05;;;1.95;;
42200;SDS011;27869;51.442;7.540;2022-07-29T01:42:54;9.75;;;1.60;;
42200;SDS011;27869;51.442;7.540;2022-07-29T01:45:25;6.78;;;1.63;;
42200;SDS011;27869;51.442;7.540;2022-07-29T01:47:56;8.95;;;1.80;;
42200;SDS011;27869;51.442;7.540;2022-07-29T01:50:29;10.32;;;1.60;;
42200;SDS011;27869;51.442;7.540;2022-07-29T01:53:01;6.78;;;1.73;;
42200;SDS011;27869;51.442;7.540;2022-07-29T01:55:31;7.65;;;1.80;;
42200;SDS011;27869;51.442;7.540;2022-07-29T01:58:01;8.07;;;1.88;;
42200;SDS011;27869;51.442;7.540;2022-07-29T02:00:32;7.93;;;1.50;;
42200;SDS011;27869;51.442;7.540;2022-07-29T02:03:02;8.38;;;1.75;;
42200;SDS011;27869;51.442;7.540;2022-07-29T02:05:33;7.45;;;1.65;;
42200;SDS011;27869;51.442;7.540;2022-07-29T02:08:01;8.13;;;1.63;;
42200;SDS011;27869;51.442;7.540;2022-07-29T02:10:30;8.90;;;1.67;;
42200;SDS011;27869;51.442;7.540;2022-07-29T02:12:59;9.77;;;1.65;;
42200;SDS011;27869;51.442;7.540;2022-07-29T02:15:28;5.05;;;1.67;;
42200;SDS011;27869;51.442;7.540;2022-07-29T02:18:00;10.60;;;2.10;;
42200;SDS011;27869;51.442;7.540;2022-07-29T02:20:30;5.95;;;1.67;;
42200;SDS011;27869;51.442;7.540;2022-07-29T02:22:58;8.63;;;1.83;;
42200;SDS011;27869;51.442;7.540;2022-07-29T02:25:26;7.22;;;1.60;;
42200;SDS011;27869;51.442;7.540;2022-07-29T02:27:54;8.85;;;1.70;;
42200;SDS011;27869;51.442;7.540;2022-07-29T02:30:22;5.85;;;1.70;;
42200;SDS011;27869;51.442;7.540;2022-07-29T02:32:52;8.23;;;2.00;;
42200;SDS011;27869;51.442;7.540;2022-07-29T02:35:21;9.70;;;1.80;;
42200;SDS011;27869;51.442;7.540;2022-07-29T02:37:48;8.85;;;2.13;;
42200;SDS011;27869;51.442;7.540;2022-07-29T02:40:31;10.30;;;1.73;;
42200;SDS011;27869;51.442;7.540;2022-07-29T02:42:59;8.65;;;1.90;;
42200;SDS011;27869;51.442;7.540;2022-07-29T02:45:28;8.68;;;1.52;;
42200;SDS011;27869;51.442;7.540;2022-07-29T02:47:57;10.13;;;1.85;;
42200;SDS011;27869;51.442;7.540;2022-07-29T02:50:27;8.00;;;1.70;;
42200;SDS011;27869;51.442;7.540;2022-07-29T02:53:00;10.32;;;1.75;;
42200;SDS011;27869;51.442;7.540;2022-07-29T02:55:33;8.35;;;2.00;;
42200;SDS011;27869;51.442;7.540;2022-07-29T02:58:03;9.35;;;1.92;;
42200;SDS011;27869;51.442;7.540;2022-07-29T03:00:36;5.85;;;1.60;;
42200;SDS011;27869;51.442;7.540;2022-07-29T03:03:07;9.70;;;1.75;;
42200;SDS011;27869;51.442;7.540;2022-07-29T03:05:37;7.63;;;1.77;;
42200;SDS011;27869;51.442;7.540;2022-07-29T03:08:06;6.60;;;1.60;;
42200;SDS011;27869;51.442;7.540;2022-07-29T03:10:35;7.63;;;1.80;;
42200;SDS011;27869;51.442;7.540;2022-07-29T03:13:05;7.20;;;2.28;;
42200;SDS011;27869;51.442;7.540;2022-07-29T03:15:33;8.20;;;1.90;;
42200;SDS011;27869;51.442;7.540;2022-07-29T03:18:01;9.27;;;1.70;;
42200;SDS011;27869;51.442;7.540;2022-07-29T03:20:30;9.23;;;1.90;;
42200;SDS011;27869;51.442;7.540;2022-07-29T03:22:57;9.30;;;1.70;;
42200;SDS011;27869;51.442;7.540;2022-07-29T03:25:24;6.82;;;1.58;;
42200;SDS011;27869;51.442;7.540;2022-07-29T03:27:52;6.50;;;1.80;;
42200;SDS011;27869;51.442;7.540;2022-07-29T03:30:19;8.15;;;1.70;;
42200;SDS011;27869;51.442;7.540;2022-07-29T03:32:45;8.32;;;1.80;;
42200;SDS011;27869;51.442;7.540;2022-07-29T03:35:12;7.57;;;1.80;;
42200;SDS011;27869;51.442;7.540;2022-07-29T03:37:42;9.13;;;1.90;;
42200;SDS011;27869;51.442;7.540;2022-07-29T03:40:10;9.23;;;2.17;;
42200;SDS011;27869;51.442;7.540;2022-07-29T03:42:42;9.60;;;1.80;;
42200;SDS011;27869;51.442;7.540;2022-07-29T03:45:12;15.32;;;2.00;;
42200;SDS011;27869;51.442;7.540;2022-07-29T03:47:45;9.55;;;1.50;;
42200;SDS011;27869;51.442;7.540;2022-07-29T03:50:15;8.93;;;1.98;;
42200;SDS011;27869;51.442;7.540;2022-07-29T03:52:45;8.95;;;1.70;;
42200;SDS011;27869;51.442;7.540;2022-07-29T03:55:13;8.23;;;1.60;;
42200;SDS011;27869;51.442;7.540;2022-07-29T03:57:40;15.13;;;1.73;;
42200;SDS011;27869;51.442;7.540;2022-07-29T04:00:08;12.50;;;2.50;;
42200;SDS011;27869;51.442;7.540;2022-07-29T04:02:36;8.68;;;1.80;;
42200;SDS011;27869;51.442;7.540;2022-07-29T04:05:04;8.82;;;1.80;;
42200;SDS011;27869;51.442;7.540;2022-07-29T04:07:31;6.90;;;1.70;;
42200;SDS011;27869;51.442;7.540;2022-07-29T04:09:59;6.55;;;1.70;;
42200;SDS011;27869;51.442;7.540;2022-07-29T04:12:26;7.93;;;1.70;;
42200;SDS011;27869;51.442;7.540;2022-07-29T04:14:53;5.82;;;1.92;;
42200;SDS011;27869;51.442;7.540;2022-07-29T04:17:20;10.65;;;2.00;;
42200;SDS011;27869;51.442;7.540;2022-07-29T04:19:47;7.35;;;1.67;;
42200;SDS011;27869;51.442;7.540;2022-07-29T04:22:14;7.88;;;1.67;;
42200;SDS011;27869;51.442;7.540;2022-07-29T04:24:41;9.65;;;1.80;;
42200;SDS011;27869;51.442;7.540;2022-07-29T04:27:09;7.47;;;1.83;;
42200;SDS011;27869;51.442;7.540;2022-07-29T04:29:36;6.38;;;1.70;;
42200;SDS011;27869;51.442;7.540;2022-07-29T04:32:03;9.82;;;1.75;;
42200;SDS011;27869;51.442;7.540;2022-07-29T04:34:30;10.25;;;1.95;;
42200;SDS011;27869;51.442;7.540;2022-07-29T04:36:57;9.00;;;1.88;;
42200;SDS011;27869;51.442;7.540;2022-07-29T04:39:24;7.60;;;1.83;;
42200;SDS011;27869;51.442;7.540;2022-07-29T04:41:51;10.32;;;2.00;;
42200;SDS011;27869;51.442;7.540;2022-07-29T04:44:19;9.43;;;1.70;;
42200;SDS011;27869;51.442;7.540;2022-07-29T04:46:46;6.53;;;1.63;;
42200;SDS011;27869;51.442;7.540;2022-07-29T04:49:13;7.70;;;2.08;;
42200;SDS011;27869;51.442;7.540;2022-07-29T04:51:40;13.07;;;1.90;;
42200;SDS011;27869;51.442;7.540;2022-07-29T04:54:07;7.63;;;2.22;;
42200;SDS011;27869;51.442;7.540;2022-07-29T04:56:34;7.85;;;1.80;;
42200;SDS011;27869;51.442;7.540;2022-07-29T04:59:00;10.27;;;2.03;;
42200;SDS011;27869;51.442;7.540;2022-07-29T05:01:29;7.15;;;1.67;;
42200;SDS011;27869;51.442;7.540;2022-07-29T05:03:56;8.60;;;1.90;;
42200;SDS011;27869;51.442;7.540;2022-07-29T05:06:24;9.98;;;1.92;;
42200;SDS011;27869;51.442;7.540;2022-07-29T05:08:51;7.53;;;1.77;;
42200;SDS011;27869;51.442;7.540;2022-07-29T05:11:17;9.35;;;1.80;;
42200;SDS011;27869;51.442;7.540;2022-07-29T05:13:44;10.18;;;1.80;;
42200;SDS011;27869;51.442;7.540;2022-07-29T05:16:11;13.45;;;1.98;;
42200;SDS011;27869;51.442;7.540;2022-07-29T05:18:40;13.45;;;1.92;;
42200;SDS011;27869;51.442;7.540;2022-07-29T05:21:07;8.93;;;1.42;;
42200;SDS011;27869;51.442;7.540;2022-07-29T05:23:34;11.23;;;1.67;;
42200;SDS011;27869;51.442;7.540;2022-07-29T05:26:00;5.88;;;1.58;;
42200;SDS011;27869;51.442;7.540;2022-07-29T05:28:27;8.38;;;1.70;;
42200;SDS011;27869;51.442;7.540;2022-07-29T05:30:54;5.95;;;1.80;;
42200;SDS011;27869;51.442;7.540;2022-07-29T05:33:22;9.85;;;1.88;;
42200;SDS011;27869;51.442;7.540;2022-07-29T05:35:50;6.18;;;1.65;;
42200;SDS011;27869;51.442;7.540;2022-07-29T05:38:17;10.85;;;1.85;;
42200;SDS011;27869;51.442;7.540;2022-07-29T05:40:44;8.48;;;1.67;;
42200;SDS011;27869;51.442;7.540;2022-07-29T05:43:11;11.85;;;1.60;;
42200;SDS011;27869;51.442;7.540;2022-07-29T05:45:38;10.32;;;2.60;;
42200;SDS011;27869;51.442;7.540;2022-07-29T05:48:05;8.10;;;1.77;;
42200;SDS011;27869;51.442;7.540;2022-07-29T05:50:32;12.35;;;1.75;;
42200;SDS011;27869;51.442;7.540;2022-07-29T05:53:00;10.25;;;1.88;;
42200;SDS011;27869;51.442;7.540;2022-07-29T05:55:27;8.35;;;1.70;;
42200;SDS011;27869;51.442;7.540;2022-07-29T05:57:54;6.50;;;1.90;;
42200;SDS011;27869;51.442;7.540;2022-07-29T06:00:21;5.93;;;1.60;;
42200;SDS011;27869;51.442;7.540;2022-07-29T06:02:48;7.90;;;1.92;;
42200;SDS011;27869;51.442;7.540;2022-07-29T06:05:15;8.40;;;1.90;;
42200;SDS011;27869;51.442;7.540;2022-07-29T06:07:42;9.50;;;1.60;;
42200;SDS011;27869;51.442;7.540;2022-07-29T06:10:10;8.57;;;1.80;;
42200;SDS011;27869;51.442;7.540;2022-07-29T06:12:37;5.22;;;1.50;;
42200;SDS011;27869;51.442;7.540;2022-07-29T06:15:05;8.07;;;2.30;;
42200;SDS011;27869;51.442;7.540;2022-07-29T06:17:32;11.57;;;1.77;;
42200;SDS011;27869;51.442;7.540;2022-07-29T06:19:59;8.18;;;1.35;;
42200;SDS011;27869;51.442;7.540;2022-07-29T06:22:26;10.30;;;1.92;;
42200;SDS011;27869;51.442;7.540;2022-07-29T06:24:53;9.60;;;1.83;;
42200;SDS011;27869;51.442;7.540;2022-07-29T06:27:22;9.27;;;1.77;;
42200;SDS011;27869;51.442;7.540;2022-07-29T06:29:49;8.88;;;2.00;;
42200;SDS011;27869;51.442;7.540;2022-07-29T06:32:15;11.23;;;1.92;;
42200;SDS011;27869;51.442;7.540;2022-07-29T06:34:44;9.10;;;1.42;;
42200;SDS011;27869;51.442;7.540;2022-07-29T06:37:10;12.13;;;1.98;;
42200;SDS011;27869;51.442;7.540;2022-07-29T06:39:37;8.40;;;1.73;;
42200;SDS011;27869;51.442;7.540;2022-07-29T06:42:04;9.73;;;2.25;;
42200;SDS011;27869;51.442;7.540;2022-07-29T06:44:33;9.98;;;1.80;;
42200;SDS011;27869;51.442;7.540;2022-07-29T06:47:00;11.30;;;2.10;;
42200;SDS011;27869;51.442;7.540;2022-07-29T06:49:27;10.38;;;2.05;;
42200;SDS011;27869;51.442;7.540;2022-07-29T06:51:54;9.02;;;1.80;;
42200;SDS011;27869;51.442;7.540;2022-07-29T06:54:21;11.48;;;2.40;;
42200;SDS011;27869;51.442;7.540;2022-07-29T06:56:48;10.38;;;1.85;;
42200;SDS011;27869;51.442;7.540;2022-07-29T06:59:15;9.02;;;1.88;;
42200;SDS011;27869;51.442;7.540;2022-07-29T07:01:43;9.32;;;2.00;;
42200;SDS011;27869;51.442;7.540;2022-07-29T07:04:10;10.25;;;2.03;;
42200;SDS011;27869;51.442;7.540;2022-07-29T07:06:38;9.07;;;1.80;;
42200;SDS011;27869;51.442;7.540;2022-07-29T07:09:05;10.15;;;1.83;;
42200;SDS011;27869;51.442;7.540;2022-07-29T07:11:32;7.20;;;1.90;;
42200;SDS011;27869;51.442;7.540;2022-07-29T07:13:59;7.63;;;1.73;;
42200;SDS011;27869;51.442;7.540;2022-07-29T07:16:26;9.40;;;1.65;;
42200;SDS011;27869;51.442;7.540;2022-07-29T07:18:54;8.82;;;2.17;;
42200;SDS011;27869;51.442;7.540;2022-07-29T07:21:21;8.07;;;1.95;;
42200;SDS011;27869;51.442;7.540;2022-07-29T07:23:48;10.10;;;1.92;;
42200;SDS011;27869;51.442;7.540;2022-07-29T07:26:15;8.70;;;2.08;;
42200;SDS011;27869;51.442;7.540;2022-07-29T07:28:42;9.30;;;1.70;;
42200;SDS011;27869;51.442;7.540;2022-07-29T07:31:09;9.10;;;2.03;;
42200;SDS011;27869;51.442;7.540;2022-07-29T07:33:37;9.73;;;2.13;;
42200;SDS011;27869;51.442;7.540;2022-07-29T07:36:05;10.30;;;2.00;;
42200;SDS011;27869;51.442;7.540;2022-07-29T07:38:32;11.60;;;2.50;;
42200;SDS011;27869;51.442;7.540;2022-07-29T07:40:59;10.00;;;2.42;;
42200;SDS011;27869;51.442;7.540;2022-07-29T07:43:26;13.13;;;3.10;;
42200;SDS011;27869;51.442;7.540;2022-07-29T07:45:53;14.23;;;3.60;;
42200;SDS011;27869;51.442;7.540;2022-07-29T07:48:20;16.77;;;3.42;;
42200;SDS011;27869;51.442;7.540;2022-07-29T07:50:47;13.50;;;4.20;;
42200;SDS011;27869;51.442;7.540;2022-07-29T07:53:16;13.35;;;3.88;;
42200;SDS011;27869;51.442;7.540;2022-07-29T07:55:44;16.02;;;5.00;;
42200;SDS011;27869;51.442;7.540;2022-07-29T07:58:11;13.43;;;4.10;;
42200;SDS011;27869;51.442;7.540;2022-07-29T08:00:38;15.52;;;4.00;;
42200;SDS011;27869;51.442;7.540;2022-07-29T08:03:04;18.67;;;4.03;;
42200;SDS011;27869;51.442;7.540;2022-07-29T08:05:32;15.88;;;5.05;;
42200;SDS011;27869;51.442;7.540;2022-07-29T08:07:59;18.20;;;4.72;;
42200;SDS011;27869;51.442;7.540;2022-07-29T08:10:27;27.95;;;6.07;;
42200;SDS011;27869;51.442;7.540;2022-07-29T08:13:11;15.95;;;5.35;;
42200;SDS011;27869;51.442;7.540;2022-07-29T08:15:39;13.25;;;4.90;;
42200;SDS011;27869;51.442;7.540;2022-07-29T08:18:08;12.73;;;3.63;;
42200;SDS011;27869;51.442;7.540;2022-07-29T08:20:35;11.93;;;2.72;;
42200;SDS011;27869;51.442;7.540;2022-07-29T08:23:03;13.05;;;2.85;;
42200;SDS011;27869;51.442;7.540;2022-07-29T08:25:32;12.10;;;3.35;;
42200;SDS011;27869;51.442;7.540;2022-07-29T08:27:59;12.73;;;2.97;;
42200;SDS011;27869;51.442;7.540;2022-07-29T08:30:26;11.48;;;2.70;;
42200;SDS011;27869;51.442;7.540;2022-07-29T08:32:54;11.65;;;2.20;;
42200;SDS011;27869;51.442;7.540;2022-07-29T08:35:22;13.35;;;2.50;;
42200;SDS011;27869;51.442;7.540;2022-07-29T08:37:50;15.75;;;2.55;;
42200;SDS011;27869;51.442;7.540;2022-07-29T08:40:17;8.40;;;1.70;;
42200;SDS011;27869;51.442;7.540;2022-07-29T08:42:45;10.15;;;2.05;;
42200;SDS011;27869;51.442;7.540;2022-07-29T08:45:12;10.48;;;2.00;;
42200;SDS011;27869;51.442;7.540;2022-07-29T08:47:39;9.20;;;2.13;;
42200;SDS011;27869;51.442;7.540;2022-07-29T08:50:07;13.07;;;1.92;;
42200;SDS011;27869;51.442;7.540;2022-07-29T08:52:35;12.27;;;2.38;;
42200;SDS011;27869;51.442;7.540;2022-07-29T08:55:05;13.27;;;2.25;;
42200;SDS011;27869;51.442;7.540;2022-07-29T08:57:33;9.68;;;1.92;;
42200;SDS011;27869;51.442;7.540;2022-07-29T09:00:04;9.55;;;1.85;;
42200;SDS011;27869;51.442;7.540;2022-07-29T09:02:39;10.68;;;1.90;;
42200;SDS011;27869;51.442;7.540;2022-07-29T09:05:08;8.45;;;2.30;;
42200;SDS011;27869;51.442;7.540;2022-07-29T09:07:36;11.23;;;2.05;;
42200;SDS011;27869;51.442;7.540;2022-07-29T09:10:07;8.18;;;2.10;;
42200;SDS011;27869;51.442;7.540;2022-07-29T09:12:35;9.63;;;2.17;;
42200;SDS011;27869;51.442;7.540;2022-07-29T09:15:03;12.38;;;2.50;;
42200;SDS011;27869;51.442;7.540;2022-07-29T09:17:40;10.65;;;1.88;;
42200;SDS011;27869;51.442;7.540;2022-07-29T09:20:09;9.88;;;2.40;;
42200;SDS011;27869;51.442;7.540;2022-07-29T09:22:37;11.77;;;2.22;;
42200;SDS011;27869;51.442;7.540;2022-07-29T09:25:04;10.00;;;1.85;;
42200;SDS011;27869;51.442;7.540;2022-07-29T09:27:32;10.45;;;1.80;;
42200;SDS011;27869;51.442;7.540;2022-07-29T09:29:59;10.60;;;2.30;;
42200;SDS011;27869;51.442;7.540;2022-07-29T09:32:30;16.63;;;2.45;;
42200;SDS011;27869;51.442;7.540;2022-07-29T09:37:43;11.60;;;2.03;;
42200;SDS011;27869;51.442;7.540;2022-07-29T09:40:11;9.88;;;1.95;;
42200;SDS011;27869;51.442;7.540;2022-07-29T09:42:40;10.07;;;2.47;;
42200;SDS011;27869;51.442;7.540;2022-07-29T09:45:08;12.48;;;2.47;;
42200;SDS011;27869;51.442;7.540;2022-07-29T09:47:43;7.97;;;1.80;;
42200;SDS011;27869;51.442;7.540;2022-07-29T09:50:13;15.45;;;2.00;;
42200;SDS011;27869;51.442;7.540;2022-07-29T09:52:44;13.75;;;2.45;;
42200;SDS011;27869;51.442;7.540;2022-07-29T09:55:13;12.68;;;2.20;;
42200;SDS011;27869;51.442;7.540;2022-07-29T09:57:40;10.05;;;2.15;;
42200;SDS011;27869;51.442;7.540;2022-07-29T10:00:08;10.00;;;2.15;;
42200;SDS011;27869;51.442;7.540;2022-07-29T10:02:37;14.98;;;2.95;;
42200;SDS011;27869;51.442;7.540;2022-07-29T10:05:15;15.02;;;2.47;;
42200;SDS011;27869;51.442;7.540;2022-07-29T10:07:44;8.43;;;2.45;;
42200;SDS011;27869;51.442;7.540;2022-07-29T10:10:18;10.55;;;2.78;;
42200;SDS011;27869;51.442;7.540;2022-07-29T10:12:50;12.32;;;2.83;;
42200;SDS011;27869;51.442;7.540;2022-07-29T10:15:19;12.15;;;3.20;;
42200;SDS011;27869;51.442;7.540;2022-07-29T10:17:47;13.40;;;3.10;;
42200;SDS011;27869;51.442;7.540;2022-07-29T10:20:17;17.65;;;3.53;;
42200;SDS011;27869;51.442;7.540;2022-07-29T10:22:44;13.40;;;2.58;;
42200;SDS011;27869;51.442;7.540;2022-07-29T10:25:13;10.60;;;2.55;;
42200;SDS011;27869;51.442;7.540;2022-07-29T10:27:41;12.40;;;2.55;;
42200;SDS011;27869;51.442;7.540;2022-07-29T10:30:09;13.07;;;3.00;;
42200;SDS011;27869;51.442;7.540;2022-07-29T10:32:44;12.02;;;2.47;;
42200;SDS011;27869;51.442;7.540;2022-07-29T10:38:25;11.57;;;2.42;;
42200;SDS011;27869;51.442;7.540;2022-07-29T10:41:03;12.88;;;2.67;;
42200;SDS011;27869;51.442;7.540;2022-07-29T10:43:55;13.20;;;2.75;;
42200;SDS011;27869;51.442;7.540;2022-07-29T10:46:25;17.00;;;3.08;;
42200;SDS011;27869;51.442;7.540;2022-07-29T10:49:10;14.15;;;2.83;;
42200;SDS011;27869;51.442;7.540;2022-07-29T10:54:36;13.05;;;3.10;;
42200;SDS011;27869;51.442;7.540;2022-07-29T10:57:19;12.85;;;2.78;;
42200;SDS011;27869;51.442;7.540;2022-07-29T10:59:50;10.98;;;3.10;;
42200;SDS011;27869;51.442;7.540;2022-07-29T11:02:43;12.32;;;3.30;;
42200;SDS011;27869;51.442;7.540;2022-07-29T11:05:12;13.20;;;3.17;;
42200;SDS011;27869;51.442;7.540;2022-07-29T11:10:44;12.77;;;3.08;;
42200;SDS011;27869;51.442;7.540;2022-07-29T11:13:11;11.05;;;3.10;;
42200;SDS011;27869;51.442;7.540;2022-07-29T11:15:51;14.40;;;3.33;;
42200;SDS011;27869;51.442;7.540;2022-07-29T11:23:18;12.05;;;2.85;;
42200;SDS011;27869;51.442;7.540;2022-07-29T11:31:43;12.98;;;3.17;;
42200;SDS011;27869;51.442;7.540;2022-07-29T11:34:15;13.18;;;2.97;;
42200;SDS011;27869;51.442;7.540;2022-07-29T11:39:45;12.90;;;3.00;;
42200;SDS011;27869;51.442;7.540;2022-07-29T11:45:01;12.48;;;2.90;;
42200;SDS011;27869;51.442;7.540;2022-07-29T11:47:31;10.02;;;2.78;;
42200;SDS011;27869;51.442;7.540;2022-07-29T11:49:59;11.10;;;2.95;;
42200;SDS011;27869;51.442;7.540;2022-07-29T11:52:31;10.30;;;2.85;;
42200;SDS011;27869;51.442;7.540;2022-07-29T11:55:00;14.27;;;2.80;;
42200;SDS011;27869;51.442;7.540;2022-07-29T11:57:28;12.02;;;2.85;;
42200;SDS011;27869;51.442;7.540;2022-07-29T11:59:55;11.38;;;2.70;;
42200;SDS011;27869;51.442;7.540;2022-07-29T12:02:26;13.70;;;2.70;;
42200;SDS011;27869;51.442;7.540;2022-07-29T12:05:05;12.90;;;2.40;;
42200;SDS011;27869;51.442;7.540;2022-07-29T12:07:33;12.10;;;2.85;;
42200;SDS011;27869;51.442;7.540;2022-07-29T12:10:01;11.00;;;2.90;;
42200;SDS011;27869;51.442;7.540;2022-07-29T12:12:30;10.43;;;2.40;;
42200;SDS011;27869;51.442;7.540;2022-07-29T12:14:57;8.55;;;2.15;;
42200;SDS011;27869;51.442;7.540;2022-07-29T12:17:26;12.65;;;2.70;;
42200;SDS011;27869;51.442;7.540;2022-07-29T12:19:53;12.32;;;2.67;;
42200;SDS011;27869;51.442;7.540;2022-07-29T12:22:26;8.60;;;2.45;;
42200;SDS011;27869;51.442;7.540;2022-07-29T12:24:54;9.30;;;2.20;;
42200;SDS011;27869;51.442;7.540;2022-07-29T12:27:21;14.98;;;3.03;;
42200;SDS011;27869;51.442;7.540;2022-07-29T12:29:57;12.38;;;2.42;;
42200;SDS011;27869;51.442;7.540;2022-07-29T12:32:31;12.13;;;3.30;;
42200;SDS011;27869;51.442;7.540;2022-07-29T12:34:59;14.27;;;3.38;;
42200;SDS011;27869;51.442;7.540;2022-07-29T12:37:30;14.80;;;3.17;;
42200;SDS011;27869;51.442;7.540;2022-07-29T12:39:57;10.43;;;3.10;;
42200;SDS011;27869;51.442;7.540;2022-07-29T12:42:24;13.98;;;2.85;;
42200;SDS011;27869;51.442;7.540;2022-07-29T12:44:51;10.63;;;2.78;;
42200;SDS011;27869;51.442;7.540;2022-07-29T12:47:18;14.20;;;3.05;;
42200;SDS011;27869;51.442;7.540;2022-07-29T12:49:48;12.43;;;2.97;;
42200;SDS011;27869;51.442;7.540;2022-07-29T12:52:28;12.68;;;2.92;;
42200;SDS011;27869;51.442;7.540;2022-07-29T12:54:56;13.07;;;3.17;;
42200;SDS011;27869;51.442;7.540;2022-07-29T12:57:23;14.90;;;3.30;;
42200;SDS011;27869;51.442;7.540;2022-07-29T13:00:02;13.02;;;3.20;;
42200;SDS011;27869;51.442;7.540;2022-07-29T13:02:32;12.25;;;2.75;;
42200;SDS011;27869;51.442;7.540;2022-07-29T13:05:01;14.20;;;3.10;;
42200;SDS011;27869;51.442;7.540;2022-07-29T13:07:29;15.85;;;3.40;;
42200;SDS011;27869;51.442;7.540;2022-07-29T13:10:10;13.50;;;3.22;;
42200;SDS011;27869;51.442;7.540;2022-07-29T13:15:28;11.55;;;3.17;;
42200;SDS011;27869;51.442;7.540;2022-07-29T13:17:56;13.07;;;3.63;;
42200;SDS011;27869;51.442;7.540;2022-07-29T13:20:25;13.48;;;3.00;;
42200;SDS011;27869;51.442;7.540;2022-07-29T13:22:54;15.40;;;3.10;;
42200;SDS011;27869;51.442;7.540;2022-07-29T13:25:25;12.05;;;2.88;;
42200;SDS011;27869;51.442;7.540;2022-07-29T13:27:53;12.98;;;3.40;;
42200;SDS011;27869;51.442;7.540;2022-07-29T13:30:21;12.32;;;3.30;;
42200;SDS011;27869;51.442;7.540;2022-07-29T13:32:49;14.77;;;3.10;;
42200;SDS011;27869;51.442;7.540;2022-07-29T13:35:17;11.73;;;3.13;;
42200;SDS011;27869;51.442;7.540;2022-07-29T13:37:46;13.30;;;3.10;;
42200;SDS011;27869;51.442;7.540;2022-07-29T13:40:14;17.73;;;3.60;;
42200;SDS011;27869;51.442;7.540;2022-07-29T13:42:41;12.80;;;3.10;;
42200;SDS011;27869;51.442;7.540;2022-07-29T13:45:08;12.25;;;3.03;;
42200;SDS011;27869;51.442;7.540;2022-07-29T13:47:36;14.25;;;3.63;;
42200;SDS011;27869;51.442;7.540;2022-07-29T13:50:04;9.45;;;2.90;;
42200;SDS011;27869;51.442;7.540;2022-07-29T13:52:32;14.45;;;3.30;;
42200;SDS011;27869;51.442;7.540;2022-07-29T13:55:01;11.05;;;3.10;;
42200;SDS011;27869;51.442;7.540;2022-07-29T13:57:29;11.15;;;3.10;;
42200;SDS011;27869;51.442;7.540;2022-07-29T13:59:57;13.82;;;3.90;;
42200;SDS011;27869;51.442;7.540;2022-07-29T14:02:24;13.23;;;3.17;;
42200;SDS011;27869;51.442;7.540;2022-07-29T14:04:50;12.15;;;3.15;;
42200;SDS011;27869;51.442;7.540;2022-07-29T14:07:18;10.77;;;2.95;;
42200;SDS011;27869;51.442;7.540;2022-07-29T14:09:45;10.95;;;3.30;;
42200;SDS011;27869;51.442;7.540;2022-07-29T14:12:13;15.35;;;3.17;;
42200;SDS011;27869;51.442;7.540;2022-07-29T14:14:40;13.45;;;2.97;;
42200;SDS011;27869;51.442;7.540;2022-07-29T14:17:07;10.23;;;2.60;;
42200;SDS011;27869;51.442;7.540;2022-07-29T14:19:34;8.20;;;2.67;;
42200;SDS011;27869;51.442;7.540;2022-07-29T14:22:02;13.27;;;3.15;;
42200;SDS011;27869;51.442;7.540;2022-07-29T14:24:30;11.10;;;2.33;;
42200;SDS011;27869;51.442;7.540;2022-07-29T14:26:57;12.43;;;3.20;;
42200;SDS011;27869;51.442;7.540;2022-07-29T14:29:26;12.13;;;2.70;;
42200;SDS011;27869;51.442;7.540;2022-07-29T14:31:53;10.48;;;2.40;;
42200;SDS011;27869;51.442;7.540;2022-07-29T14:34:20;12.27;;;2.95;;
42200;SDS011;27869;51.442;7.540;2022-07-29T14:36:47;10.43;;;2.53;;
42200;SDS011;27869;51.442;7.540;2022-07-29T14:39:14;9.10;;;2.53;;
42200;SDS011;27869;51.442;7.540;2022-07-29T14:41:41;9.52;;;2.88;;
42200;SDS011;27869;51.442;7.540;2022-07-29T14:44:08;8.32;;;2.30;;
42200;SDS011;27869;51.442;7.540;2022-07-29T14:46:37;10.18;;;2.80;;
42200;SDS011;27869;51.442;7.540;2022-07-29T14:51:31;12.82;;;2.17;;
42200;SDS011;27869;51.442;7.540;2022-07-29T14:53:58;11.02;;;2.42;;
42200;SDS011;27869;51.442;7.540;2022-07-29T14:56:25;9.32;;;2.53;;
42200;SDS011;27869;51.442;7.540;2022-07-29T14:58:54;11.73;;;2.80;;
42200;SDS011;27869;51.442;7.540;2022-07-29T15:01:22;9.13;;;2.67;;
42200;SDS011;27869;51.442;7.540;2022-07-29T15:03:50;9.90;;;2.28;;
42200;SDS011;27869;51.442;7.540;2022-07-29T15:06:17;12.05;;;2.47;;
42200;SDS011;27869;51.442;7.540;2022-07-29T15:08:44;9.60;;;2.60;;
42200;SDS011;27869;51.442;7.540;2022-07-29T15:11:11;8.13;;;2.67;;
42200;SDS011;27869;51.442;7.540;2022-07-29T15:13:38;11.07;;;2.65;;
42200;SDS011;27869;51.442;7.540;2022-07-29T15:16:05;13.07;;;2.60;;
42200;SDS011;27869;51.442;7.540;2022-07-29T15:18:32;12.05;;;2.50;;
42200;SDS011;27869;51.442;7.540;2022-07-29T15:21:00;9.52;;;2.47;;
42200;SDS011;27869;51.442;7.540;2022-07-29T15:23:27;11.48;;;2.97;;
42200;SDS011;27869;51.442;7.540;2022-07-29T15:25:54;14.52;;;3.75;;